Time;durP1;ratioP1;P1;durP2;ratioP2;P2;SDS_P1;SDS_P2;PMS_P1;PMS_P2;Temp;Humidity;BMP_temperature;BMP_pressure;BME280_temperature;BME280_humidity;BME280_pressure;Samples;Min_cycle;Max_cycle;Signal;HPM_P1;HPM_P2
2023/07/14 00:01:54;;;;;;;11.00;5.50;;;;;;;30.08;55.16;98698.47;5073935;28;20180;-88
2023/07/14 00:04:32;;;;;;;8.02;4.75;;;;;;;30.05;56.06;98699.72;5055975;28;20200;-88
2023/07/14 00:06:59;;;;;;;9.55;5.10;;;;;;;29.98;56.05;98695.41;5053884;28;20180;-88
2023/07/14 00:09:29;;;;;;;10.18;5.45;;;;;;;29.99;55.93;98699.75;5054687;28;20190;-88
2023/07/14 00:11:56;;;;;;;8.85;5.53;;;;;;;29.92;56.34;98702.50;5054113;28;20174;-87
2023/07/14 00:14:23;;;;;;;9.23;5.55;;;;;;;29.90;56.09;98707.25;5053878;28;20177;-87
2023/07/14 00:16:48;;;;;;;8.50;5.30;;;;;;;29.88;55.56;98719.34;5058960;28;20238;-88
2023/07/14 00:19:18;;;;;;;10.60;6.18;;;;;;;29.89;55.91;98711.03;5093708;28;20279;-88
2023/07/14 00:21:46;;;;;;;9.90;5.00;;;;;;;29.91;56.34;98713.50;5094111;28;20240;-87
2023/07/14 00:24:17;;;;;;;13.15;5.53;;;;;;;29.91;56.14;98713.50;5093670;28;20240;-88
2023/07/14 00:26:49;;;;;;;7.93;5.03;;;;;;;29.90;56.44;98714.56;5080992;28;20258;-88
2023/07/14 00:29:38;;;;;;;10.63;6.45;;;;;;;29.88;56.43;98709.34;5073912;28;20196;-88
2023/07/14 00:32:15;;;;;;;9.25;6.22;;;;;;;29.87;56.54;98705.00;5072440;28;20169;-88
2023/07/14 00:34:42;;;;;;;8.45;5.55;;;;;;;29.92;56.13;98699.78;5071293;28;20263;-88
2023/07/14 00:37:08;;;;;;;10.13;5.47;;;;;;;29.87;56.37;98696.91;5053413;28;20204;-88
2023/07/14 00:39:34;;;;;;;10.95;5.47;;;;;;;29.82;56.41;98689.41;5053379;28;20256;-87
2023/07/14 00:42:03;;;;;;;7.50;5.07;;;;;;;29.85;56.39;98688.16;5053262;28;20307;-87
2023/07/14 00:44:30;;;;;;;10.75;5.50;;;;;;;29.89;56.29;98677.75;5053666;28;20252;-88
2023/07/14 00:46:57;;;;;;;10.98;5.47;;;;;;;29.78;56.61;98677.41;5073323;28;20171;-87
2023/07/14 00:49:42;;;;;;;10.00;5.93;;;;;;;29.93;56.32;98679.81;5073587;28;20173;-88
2023/07/14 00:52:19;;;;;;;12.52;5.90;;;;;;;29.78;57.04;98663.88;5072239;28;20191;-88
2023/07/14 00:54:51;;;;;;;9.20;5.95;;;;;;;29.82;57.04;98667.81;5073541;28;20164;-88
2023/07/14 00:57:21;;;;;;;16.30;6.50;;;;;;;29.73;57.46;98665.53;5072479;28;20185;-88
2023/07/14 00:59:51;;;;;;;14.27;6.00;;;;;;;29.56;57.65;98667.88;5073316;28;20183;-88
2023/07/14 01:02:23;;;;;;;12.05;6.35;;;;;;;29.60;57.57;98660.19;5073079;28;20193;-88
2023/07/14 01:04:53;;;;;;;10.52;5.82;;;;;;;29.62;57.78;98667.03;5073442;28;20236;-88
2023/07/14 01:07:34;;;;;;;11.52;6.07;;;;;;;29.57;57.78;98669.53;5073357;28;20181;-88
2023/07/14 01:10:01;;;;;;;11.60;6.25;;;;;;;29.67;57.23;98671.78;5067353;28;20252;-87
2023/07/14 01:12:33;;;;;;;10.25;6.75;;;;;;;29.51;57.98;98669.53;5053268;28;20165;-88
2023/07/14 01:14:59;;;;;;;11.13;6.03;;;;;;;29.46;57.66;98662.09;5053308;28;20150;-88
2023/07/14 01:17:27;;;;;;;13.40;5.93;;;;;;;29.44;58.53;98664.19;5052057;28;20185;-88
2023/07/14 01:19:59;;;;;;;11.70;6.50;;;;;;;29.46;58.35;98651.28;5052871;28;20170;-87
2023/07/14 01:22:52;;;;;;;11.68;6.78;;;;;;;29.43;58.77;98650.91;5053805;28;20201;-88
2023/07/14 01:25:42;;;;;;;9.98;5.70;;;;;;;29.41;58.09;98659.19;5073526;28;20187;-87
2023/07/14 01:28:14;;;;;;;14.68;5.93;;;;;;;29.29;58.93;98660.91;5073378;28;20153;-87
2023/07/14 01:30:42;;;;;;;10.52;6.05;;;;;;;29.29;58.54;98660.06;5072896;28;20173;-88
2023/07/14 01:33:17;;;;;;;12.45;5.32;;;;;;;29.18;59.61;98656.13;5071901;28;20672;-88
2023/07/14 01:35:52;;;;;;;13.80;6.18;;;;;;;29.06;59.70;98655.09;5071885;28;20230;-88
2023/07/14 01:38:19;;;;;;;9.15;6.22;;;;;;;29.12;59.28;98660.47;5073010;28;20156;-88
2023/07/14 01:40:46;;;;;;;9.23;5.80;;;;;;;29.18;59.24;98664.22;5072022;28;20181;-88
2023/07/14 01:43:13;;;;;;;8.05;5.53;;;;;;;29.22;59.10;98654.66;5072735;28;20196;-88
2023/07/14 01:46:00;;;;;;;10.07;6.07;;;;;;;29.21;58.59;98659.25;5071832;28;20177;-87
2023/07/14 01:48:57;;;;;;;9.60;6.22;;;;;;;29.14;58.52;98652.19;5073036;28;20161;-87
2023/07/14 01:51:23;;;;;;;9.57;6.68;;;;;;;29.19;58.57;98655.09;5054588;28;20702;-87
2023/07/14 01:54:03;;;;;;;9.55;5.90;;;;;;;29.19;58.25;98661.28;5071761;28;20249;-88
2023/07/14 01:56:32;;;;;;;9.63;6.00;;;;;;;29.16;57.86;98661.75;5073257;28;20192;-87
2023/07/14 01:59:14;;;;;;;10.70;5.97;;;;;;;29.07;57.92;98662.16;5072267;28;20269;-87
2023/07/14 02:01:44;;;;;;;9.35;5.68;;;;;;;29.00;58.25;98662.16;5071620;28;20165;-87
2023/07/14 02:04:19;;;;;;;13.00;6.07;;;;;;;28.95;57.97;98669.22;5072319;28;20189;-88
2023/07/14 02:06:46;;;;;;;12.85;6.75;;;;;;;28.83;59.34;98674.41;5071483;28;20184;-87
2023/07/14 02:09:18;;;;;;;8.45;4.90;;;;;;;28.73;58.95;98678.56;5074610;28;20173;-87
2023/07/14 02:11:53;;;;;;;11.57;6.85;;;;;;;28.73;58.97;98675.84;5075133;28;20246;-87
2023/07/14 02:14:21;;;;;;;7.38;5.18;;;;;;;28.70;59.09;98670.88;5074951;28;20176;-87
2023/07/14 02:16:49;;;;;;;11.00;5.25;;;;;;;28.58;60.15;98667.94;5076034;28;20183;-87
2023/07/14 02:19:26;;;;;;;10.05;5.35;;;;;;;28.50;60.30;98668.97;5075015;28;20209;-87
2023/07/14 02:21:54;;;;;;;11.20;5.97;;;;;;;28.43;59.48;98664.63;5076166;28;20181;-87
2023/07/14 02:24:24;;;;;;;8.65;5.63;;;;;;;28.44;59.11;98672.50;5074688;28;20236;-87
2023/07/14 02:26:59;;;;;;;7.93;4.95;;;;;;;28.38;59.03;98672.50;5076406;28;20192;-87
2023/07/14 02:29:26;;;;;;;8.55;5.18;;;;;;;28.30;58.65;98672.69;5076075;28;20252;-87
2023/07/14 02:32:00;;;;;;;10.48;5.45;;;;;;;28.31;58.35;98677.88;5074777;28;20192;-87
2023/07/14 02:34:35;;;;;;;9.35;4.70;;;;;;;28.27;58.37;98673.09;5076039;28;20522;-87
2023/07/14 02:37:04;;;;;;;11.18;5.03;;;;;;;28.30;58.58;98675.38;5074691;28;20251;-88
2023/07/14 02:39:38;;;;;;;13.27;6.05;;;;;;;28.34;58.56;98673.94;5075585;28;20200;-87
2023/07/14 02:42:04;;;;;;;10.02;5.68;;;;;;;28.25;58.17;98669.78;5076020;28;20195;-87
2023/07/14 02:44:36;;;;;;;8.10;4.57;;;;;;;28.24;58.72;98673.50;5075814;28;20196;-87
2023/07/14 02:47:15;;;;;;;8.85;5.60;;;;;;;28.25;58.83;98667.88;5068060;28;20182;-87
2023/07/14 02:49:41;;;;;;;11.18;5.60;;;;;;;28.29;58.45;98654.84;5055642;28;20170;-87
2023/07/14 02:52:07;;;;;;;12.02;5.13;;;;;;;28.29;58.74;98650.28;5054394;28;20182;-87
2023/07/14 02:54:33;;;;;;;8.60;5.55;;;;;;;28.33;58.38;98646.13;5055195;28;20187;-87
2023/07/14 02:57:00;;;;;;;13.15;6.18;;;;;;;28.33;58.19;98638.03;5074554;28;20254;-87
2023/07/14 02:59:25;;;;;;;11.85;5.40;;;;;;;28.34;58.54;98644.28;5075237;28;20610;-87
2023/07/14 03:01:52;;;;;;;8.40;5.85;;;;;;;28.38;58.21;98645.53;5074139;28;20177;-87
2023/07/14 03:04:17;;;;;;;9.80;6.35;;;;;;;28.34;58.46;98645.09;5074071;28;20641;-87
2023/07/14 03:06:44;;;;;;;9.68;5.60;;;;;;;28.35;58.40;98649.47;5075381;28;20177;-87
2023/07/14 03:09:11;;;;;;;16.25;6.35;;;;;;;28.34;59.08;98650.50;5075553;28;20181;-87
2023/07/14 03:11:37;;;;;;;9.63;6.20;;;;;;;28.31;58.85;98650.91;5055579;28;20181;-87
2023/07/14 03:14:05;;;;;;;10.18;5.93;;;;;;;28.27;58.72;98655.06;5054963;28;20217;-88
2023/07/14 03:16:32;;;;;;;14.57;6.38;;;;;;;28.17;59.15;98653.78;5053966;28;20556;-87
2023/07/14 03:18:58;;;;;;;11.68;5.50;;;;;;;27.89;60.32;98651.19;5053901;28;20181;-87
2023/07/14 03:21:24;;;;;;;12.10;6.65;;;;;;;27.88;60.18;98669.19;5053063;28;20616;-87
2023/07/14 03:23:51;;;;;;;10.60;5.70;;;;;;;27.85;59.54;98666.94;5064793;28;20212;-87
2023/07/14 03:26:17;;;;;;;9.23;5.82;;;;;;;27.76;59.53;98678.06;5087960;28;20184;-87
2023/07/14 03:28:44;;;;;;;7.65;4.72;;;;;;;27.71;60.08;98678.69;5092931;28;20236;-87
2023/07/14 03:31:09;;;;;;;11.10;5.43;;;;;;;27.70;59.25;98684.28;5073610;28;20173;-87
2023/07/14 03:33:38;;;;;;;14.02;5.50;;;;;;;27.70;58.90;98695.84;5073422;28;20181;-87
2023/07/14 03:36:08;;;;;;;11.98;4.50;;;;;;;27.73;58.53;98691.94;5074509;28;20181;-88
2023/07/14 03:38:39;;;;;;;11.63;5.10;;;;;;;27.63;59.48;98694.16;5074571;28;20192;-87
2023/07/14 03:41:04;;;;;;;9.57;4.82;;;;;;;27.70;59.74;98700.44;5073456;28;20179;-87
2023/07/14 03:43:30;;;;;;;8.35;4.65;;;;;;;27.72;59.57;98712.66;5073293;28;20575;-88
2023/07/14 03:45:59;;;;;;;12.95;4.60;;;;;;;27.74;59.16;98717.84;5073152;28;20181;-87
2023/07/14 03:48:26;;;;;;;10.95;5.20;;;;;;;27.79;58.70;98715.38;5074247;28;20602;-87
2023/07/14 03:50:59;;;;;;;12.02;5.60;;;;;;;27.87;58.96;98715.22;5074180;28;20588;-87
2023/07/14 03:53:26;;;;;;;9.82;5.47;;;;;;;27.80;58.14;98701.72;5073124;28;20175;-86
2023/07/14 03:55:53;;;;;;;8.80;5.20;;;;;;;27.83;59.36;98716.66;5078968;28;20184;-86
2023/07/14 03:58:19;;;;;;;12.75;4.80;;;;;;;27.90;58.33;98718.34;5090511;28;20247;-87
2023/07/14 04:00:46;;;;;;;13.18;4.38;;;;;;;27.95;59.19;98728.50;5073828;28;20189;-87
2023/07/14 04:03:13;;;;;;;12.80;5.25;;;;;;;27.94;58.92;98738.44;5073892;28;20209;-86
2023/07/14 04:05:47;;;;;;;7.40;4.18;;;;;;;28.04;58.52;98754.28;5073576;28;20185;-86
2023/07/14 04:08:14;;;;;;;14.15;4.88;;;;;;;28.02;58.69;98753.66;5068000;28;20275;-86
2023/07/14 04:10:42;;;;;;;10.27;5.00;;;;;;;28.12;58.31;98750.59;5084266;28;20191;-87
2023/07/14 04:13:10;;;;;;;8.77;4.28;;;;;;;28.26;58.32;98760.38;5093010;28;20204;-87
2023/07/14 04:15:36;;;;;;;8.02;4.70;;;;;;;28.33;58.05;98772.84;5063142;28;20560;-88
2023/07/14 04:18:03;;;;;;;10.13;4.47;;;;;;;28.40;58.04;98768.31;5072952;28;20216;-87
2023/07/14 04:20:30;;;;;;;8.77;4.68;;;;;;;28.44;58.12;98793.81;5072465;28;20199;-86
2023/07/14 04:22:57;;;;;;;11.00;5.05;;;;;;;28.58;56.81;98794.72;5073089;28;20239;-86
2023/07/14 04:25:24;;;;;;;14.23;5.53;;;;;;;28.57;55.96;98801.97;5072632;28;20192;-86
2023/07/14 04:27:52;;;;;;;10.95;5.97;;;;;;;28.63;55.92;98801.19;5073822;28;20509;-86
2023/07/14 04:30:20;;;;;;;11.77;5.65;;;;;;;28.57;56.49;98814.59;5072424;28;20181;-86
2023/07/14 04:32:47;;;;;;;8.57;5.38;;;;;;;28.68;55.65;98818.63;5085533;28;20536;-86
2023/07/14 04:35:17;;;;;;;12.48;5.68;;;;;;;28.78;55.02;98819.88;5082600;28;20182;-86
2023/07/14 04:37:44;;;;;;;13.50;6.13;;;;;;;28.74;55.54;98817.81;5073733;28;20163;-87
2023/07/14 04:40:11;;;;;;;9.05;4.90;;;;;;;28.83;55.02;98820.09;5073121;28;20286;-87
2023/07/14 04:42:37;;;;;;;7.85;4.55;;;;;;;28.95;54.93;98817.66;5084919;28;20318;-86
2023/07/14 04:45:05;;;;;;;18.88;5.75;;;;;;;29.00;54.78;98823.25;5073309;28;20507;-87
2023/07/14 04:47:32;;;;;;;9.48;4.65;;;;;;;29.02;55.70;98831.97;5073475;28;20199;-87
2023/07/14 04:49:59;;;;;;;10.52;5.20;;;;;;;29.21;55.20;98832.03;5074377;28;20180;-87
2023/07/14 04:52:25;;;;;;;11.65;5.07;;;;;;;29.27;54.48;98830.38;5093427;28;20168;-87
2023/07/14 04:54:52;;;;;;;11.30;5.15;;;;;;;29.28;54.88;98823.94;5082496;28;20177;-87
2023/07/14 04:57:18;;;;;;;8.90;5.20;;;;;;;29.46;55.30;98829.53;5072152;28;20239;-87
2023/07/14 04:59:45;;;;;;;15.02;5.05;;;;;;;29.54;54.38;98823.94;5075016;28;20177;-87
2023/07/14 05:02:11;;;;;;;15.95;5.45;;;;;;;29.59;54.56;98826.81;5092598;28;20228;-87
2023/07/14 05:04:43;;;;;;;16.08;5.57;;;;;;;29.63;55.07;98819.97;5077064;28;20176;-87
2023/07/14 05:07:10;;;;;;;12.23;5.85;;;;;;;29.82;54.80;98824.53;5072764;28;20574;-87
2023/07/14 05:09:37;;;;;;;15.95;6.78;;;;;;;29.87;54.20;98820.38;5072378;28;20246;-88
2023/07/14 05:12:06;;;;;;;11.77;5.70;;;;;;;29.96;53.48;98822.63;5053096;28;20193;-87
2023/07/14 05:14:32;;;;;;;13.32;5.40;;;;;;;30.13;53.35;98823.84;5071560;28;20184;-88
2023/07/14 05:16:57;;;;;;;11.80;5.45;;;;;;;30.24;52.08;98831.28;5073018;28;20169;-87
2023/07/14 05:19:24;;;;;;;11.45;4.93;;;;;;;30.50;52.89;98833.09;5072373;28;20172;-88
2023/07/14 05:21:50;;;;;;;12.75;4.93;;;;;;;30.76;51.81;98837.56;5073309;28;20192;-88
2023/07/14 05:24:15;;;;;;;11.30;5.07;;;;;;;30.98;50.67;98837.03;5071914;28;20670;-88
2023/07/14 05:26:41;;;;;;;8.52;4.53;;;;;;;31.21;49.56;98841.03;5070885;28;20635;-88
2023/07/14 05:29:08;;;;;;;11.57;4.85;;;;;;;31.39;47.88;98841.09;5072943;28;20573;-88
2023/07/14 05:31:34;;;;;;;9.40;5.25;;;;;;;31.71;47.61;98842.72;5070254;28;20334;-88
2023/07/14 05:34:00;;;;;;;8.27;4.28;;;;;;;31.88;47.07;98848.41;5070920;28;20173;-88
2023/07/14 05:36:25;;;;;;;10.50;4.40;;;;;;;32.04;46.42;98839.72;5069833;28;20241;-88
2023/07/14 05:38:50;;;;;;;11.73;4.35;;;;;;;32.22;45.50;98845.97;5070705;28;20211;-88
2023/07/14 05:41:16;;;;;;;11.18;4.47;;;;;;;32.23;44.49;98836.75;5070180;28;20264;-88
2023/07/14 05:43:41;;;;;;;9.15;4.22;;;;;;;32.23;44.54;98835.97;5071380;28;20676;-88
2023/07/14 05:46:07;;;;;;;13.82;4.65;;;;;;;32.22;43.78;98831.56;5075373;28;20564;-88
2023/07/14 05:48:32;;;;;;;13.25;4.70;;;;;;;32.44;45.86;98834.66;5076448;28;20188;-88
2023/07/14 05:50:58;;;;;;;8.35;4.88;;;;;;;32.65;42.78;98826.06;5076712;28;20626;-87
2023/07/14 05:53:24;;;;;;;8.93;4.75;;;;;;;32.80;43.93;98834.63;5076404;28;20161;-89
2023/07/14 05:55:49;;;;;;;10.95;4.07;;;;;;;32.92;43.08;98835.47;5076358;28;20575;-89
2023/07/14 05:58:15;;;;;;;10.45;5.15;;;;;;;32.97;42.97;98832.91;5076426;28;20252;-88
2023/07/14 06:00:42;;;;;;;7.15;4.32;;;;;;;33.09;42.42;98827.53;5075123;28;20173;-89
2023/07/14 06:03:13;;;;;;;11.18;4.07;;;;;;;33.22;41.52;98828.19;5076178;28;20231;-88
2023/07/14 06:05:38;;;;;;;10.88;5.82;;;;;;;33.21;41.54;98834.66;5076852;28;20191;-89
2023/07/14 06:08:04;;;;;;;10.70;4.13;;;;;;;33.25;41.33;98835.03;5076141;28;20201;-89
2023/07/14 06:10:29;;;;;;;11.93;4.82;;;;;;;33.39;41.21;98825.59;5076320;28;20169;-89
2023/07/14 06:12:55;;;;;;;8.55;4.70;;;;;;;33.50;40.53;98829.38;5076116;28;20176;-89
2023/07/14 06:15:20;;;;;;;17.15;4.90;;;;;;;33.47;40.96;98821.69;5075106;28;20177;-90
2023/07/14 06:17:46;;;;;;;12.35;4.85;;;;;;;33.57;40.94;98832.88;5075040;28;20185;-89
2023/07/14 06:20:11;;;;;;;10.20;4.70;;;;;;;33.65;40.97;98825.16;5075971;28;20197;-89
2023/07/14 06:22:38;;;;;;;8.98;5.03;;;;;;;33.76;41.13;98834.38;5074546;28;20207;-90
2023/07/14 06:25:04;;;;;;;6.78;4.57;;;;;;;33.93;41.07;98832.63;5076207;28;20193;-89
2023/07/14 06:27:33;;;;;;;9.57;5.55;;;;;;;34.04;41.05;98829.06;5075996;28;20205;-88
2023/07/14 06:29:59;;;;;;;12.35;6.32;;;;;;;34.12;40.61;98826.00;5074966;28;20203;-89
2023/07/14 06:32:25;;;;;;;10.57;5.78;;;;;;;34.20;40.17;98830.25;5075570;28;20169;-89
2023/07/14 06:34:50;;;;;;;10.52;5.63;;;;;;;34.20;40.41;98831.06;5075585;28;20169;-89
2023/07/14 06:37:16;;;;;;;8.88;5.00;;;;;;;34.40;40.28;98834.22;5075573;28;20264;-89
2023/07/14 06:39:43;;;;;;;11.18;5.57;;;;;;;34.44;40.21;98843.56;5075584;28;20173;-89
2023/07/14 06:42:09;;;;;;;13.25;4.97;;;;;;;34.55;40.34;98837.28;5074257;28;20180;-89
2023/07/14 06:44:35;;;;;;;11.77;5.10;;;;;;;34.77;41.37;98833.91;5074544;28;20177;-90
2023/07/14 06:47:00;;;;;;;10.00;4.88;;;;;;;35.04;39.83;98840.38;5074496;28;20188;-89
2023/07/14 06:49:26;;;;;;;11.13;4.82;;;;;;;35.11;39.40;98846.56;5075709;28;20260;-89
2023/07/14 06:51:54;;;;;;;8.85;4.78;;;;;;;35.25;38.67;98847.88;5075666;28;20334;-89
2023/07/14 06:54:20;;;;;;;11.02;5.45;;;;;;;35.22;37.76;98845.66;5074836;28;20169;-91
2023/07/14 06:56:45;;;;;;;11.70;5.80;;;;;;;35.37;38.53;98856.00;5074760;28;20611;-90
2023/07/14 06:59:10;;;;;;;10.15;5.20;;;;;;;35.53;37.39;98847.88;5075485;28;20321;-89
2023/07/14 07:01:47;;;;;;;15.00;4.65;;;;;;;35.48;37.84;98841.47;5075918;28;20201;-89
2023/07/14 07:04:16;;;;;;;10.80;5.15;;;;;;;35.56;37.18;98849.25;5075422;28;20267;-90
2023/07/14 07:06:41;;;;;;;10.20;5.05;;;;;;;35.72;38.36;98842.94;5075247;28;20169;-89
2023/07/14 07:09:07;;;;;;;6.97;4.53;;;;;;;35.78;38.57;98845.53;5075171;28;20226;-90
2023/07/14 07:11:33;;;;;;;11.05;5.20;;;;;;;35.97;38.06;98856.16;5074770;28;20181;-90
2023/07/14 07:13:58;;;;;;;9.73;5.10;;;;;;;36.11;37.70;98850.09;5074958;28;20531;-90
2023/07/14 07:16:24;;;;;;;10.30;4.95;;;;;;;36.33;37.82;98855.59;5075026;28;20330;-91
2023/07/14 07:18:49;;;;;;;9.45;5.10;;;;;;;36.48;37.06;98863.16;5075478;28;20184;-91
2023/07/14 07:21:15;;;;;;;12.02;6.18;;;;;;;36.32;35.65;98862.16;5073814;28;20630;-90
2023/07/14 07:23:40;;;;;;;8.00;4.78;;;;;;;36.29;36.25;98860.75;5074831;28;20289;-90
2023/07/14 07:26:07;;;;;;;8.20;4.50;;;;;;;36.11;35.33;98873.88;5074884;28;20177;-90
2023/07/14 07:28:32;;;;;;;8.85;4.80;;;;;;;36.40;34.91;98858.94;5074664;28;20622;-90
2023/07/14 07:30:58;;;;;;;11.77;5.15;;;;;;;36.49;34.79;98862.94;5074984;28;20243;-91
2023/07/14 07:33:26;;;;;;;9.70;5.03;;;;;;;36.62;34.66;98870.75;5073746;28;20571;-91
2023/07/14 07:35:54;;;;;;;9.68;4.05;;;;;;;36.59;34.97;98868.53;5075176;28;20193;-92
2023/07/14 07:38:20;;;;;;;12.18;5.03;;;;;;;36.74;35.40;98874.16;5074186;28;20212;-90
2023/07/14 07:40:46;;;;;;;11.90;5.22;;;;;;;36.95;34.09;98880.72;5073552;28;20212;-91
2023/07/14 07:43:11;;;;;;;11.45;5.07;;;;;;;36.83;34.27;98877.28;5073571;28;20196;-90
2023/07/14 07:45:37;;;;;;;7.55;4.85;;;;;;;37.05;34.30;98869.91;5071200;28;20623;-92
2023/07/14 07:48:04;;;;;;;9.25;5.13;;;;;;;37.11;33.54;98871.59;5053997;28;20178;-90
2023/07/14 07:50:30;;;;;;;13.85;5.00;;;;;;;37.30;34.31;98864.66;5054556;28;20186;-93
2023/07/14 07:52:55;;;;;;;9.73;4.70;;;;;;;37.30;33.69;98863.84;5054268;28;20188;-91
2023/07/14 07:55:21;;;;;;;11.32;5.28;;;;;;;37.33;32.85;98871.53;5053274;28;20276;-92
2023/07/14 07:57:47;;;;;;;10.32;5.38;;;;;;;37.37;33.93;98870.75;5054300;28;20174;-89
2023/07/14 08:00:15;;;;;;;12.13;4.43;;;;;;;37.36;33.94;98871.84;5074076;28;20642;-89
2023/07/14 08:02:41;;;;;;;6.40;3.92;;;;;;;37.71;33.21;98863.13;5074301;28;20185;-90
2023/07/14 08:05:08;;;;;;;11.65;4.80;;;;;;;37.83;31.95;98854.72;5074022;28;20165;-89
2023/07/14 08:07:33;;;;;;;12.20;5.15;;;;;;;37.87;31.58;98867.66;5073586;28;20235;-90
2023/07/14 08:09:59;;;;;;;9.45;5.05;;;;;;;38.07;32.27;98858.75;5073991;28;20174;-89
2023/07/14 08:12:25;;;;;;;10.43;5.25;;;;;;;38.23;31.70;98860.50;5072954;28;20177;-90
2023/07/14 08:14:52;;;;;;;11.40;5.10;;;;;;;38.07;32.82;98864.22;5074290;28;20173;-90
2023/07/14 08:17:23;;;;;;;9.95;4.82;;;;;;;38.31;32.63;98856.44;5074271;28;20661;-91
2023/07/14 08:19:48;;;;;;;9.18;4.50;;;;;;;38.67;31.37;98859.06;5073801;28;20526;-91
2023/07/14 08:22:14;;;;;;;7.38;4.30;;;;;;;38.93;32.36;98854.50;5073859;28;20176;-89
2023/07/14 08:24:39;;;;;;;7.55;4.18;;;;;;;39.11;32.22;98854.00;5072647;28;20189;-89
2023/07/14 08:27:05;;;;;;;11.82;4.38;;;;;;;39.08;32.07;98850.97;5072612;28;20184;-89
2023/07/14 08:29:30;;;;;;;11.85;4.43;;;;;;;39.16;30.56;98843.03;5072684;28;20183;-90
2023/07/14 08:31:56;;;;;;;13.27;4.93;;;;;;;39.40;29.38;98848.00;5073506;28;20528;-91
2023/07/14 08:34:22;;;;;;;11.48;5.10;;;;;;;39.34;30.26;98843.63;5072623;28;20173;-91
2023/07/14 08:36:48;;;;;;;7.15;4.43;;;;;;;39.60;30.03;98848.03;5072780;28;20541;-90
2023/07/14 08:39:13;;;;;;;10.48;4.75;;;;;;;39.68;30.19;98851.06;5073557;28;20179;-90
2023/07/14 08:41:40;;;;;;;9.90;4.63;;;;;;;39.91;29.75;98860.66;5073485;28;20641;-90
2023/07/14 08:44:50;;;;;;;7.97;4.47;;;;;;;40.09;30.51;98857.34;5073661;28;20282;-90
2023/07/14 08:47:29;;;;;;;11.45;4.60;;;;;;;40.01;30.61;98852.38;5073742;28;20153;-91
2023/07/14 08:50:10;;;;;;;11.35;4.35;;;;;;;40.27;29.72;98843.00;5072391;28;20536;-89
2023/07/14 08:52:38;;;;;;;12.07;4.20;;;;;;;40.29;30.91;98857.28;5073881;28;20184;-91
2023/07/14 08:55:10;;;;;;;10.95;4.25;;;;;;;40.48;29.85;98843.78;5073530;28;20235;-90
2023/07/14 08:58:02;;;;;;;10.00;4.00;;;;;;;40.53;29.55;98849.25;5073057;28;20173;-90
2023/07/14 09:01:08;;;;;;;9.32;4.18;;;;;;;40.65;29.01;98837.94;5072296;28;20619;-89
2023/07/14 09:03:44;;;;;;;8.60;4.07;;;;;;;40.48;30.46;98838.28;5071623;28;20224;-90
2023/07/14 09:06:29;;;;;;;7.18;4.47;;;;;;;40.64;28.79;98830.78;5072837;28;20192;-91
2023/07/14 09:08:55;;;;;;;8.02;4.35;;;;;;;40.72;29.19;98830.19;5073343;28;20172;-90
2023/07/14 09:11:54;;;;;;;11.25;4.30;;;;;;;40.93;29.90;98834.50;5073115;28;20165;-91
2023/07/14 09:14:32;;;;;;;10.45;4.80;;;;;;;41.07;30.23;98840.97;5072128;28;20169;-90
2023/07/14 09:17:00;;;;;;;10.27;5.18;;;;;;;41.15;30.72;98829.38;5073607;28;20623;-90
2023/07/14 09:19:45;;;;;;;9.95;4.55;;;;;;;40.96;29.19;98833.94;5074979;28;20530;-90
2023/07/14 09:22:24;;;;;;;8.07;4.90;;;;;;;41.14;29.69;98825.00;5077502;28;20165;-90
2023/07/14 09:24:56;;;;;;;11.98;5.03;;;;;;;41.25;29.80;98823.00;5077066;28;20184;-91
2023/07/14 09:27:26;;;;;;;8.35;4.18;;;;;;;41.27;31.08;98821.59;5076634;28;20177;-91
2023/07/14 09:29:53;;;;;;;9.07;4.50;;;;;;;41.44;29.66;98823.94;5076994;28;20172;-91
2023/07/14 09:32:21;;;;;;;7.07;4.57;;;;;;;41.53;28.77;98822.22;5076864;28;20201;-90
2023/07/14 09:34:53;;;;;;;13.02;5.10;;;;;;;41.69;29.33;98816.28;5076927;28;20248;-90
2023/07/14 09:37:30;;;;;;;12.07;5.15;;;;;;;41.74;30.14;98822.88;5077153;28;20230;-89
2023/07/14 09:40:18;;;;;;;8.35;4.82;;;;;;;41.92;29.52;98819.38;5076764;28;20309;-90
2023/07/14 09:42:48;;;;;;;14.35;5.63;;;;;;;42.02;28.15;98816.53;5076729;28;20196;-91
2023/07/14 09:45:28;;;;;;;14.10;4.88;;;;;;;41.98;28.97;98816.31;5076961;28;20177;-90
2023/07/14 09:48:14;;;;;;;11.88;4.82;;;;;;;42.14;28.97;98816.97;5075802;28;20534;-90
2023/07/14 09:50:52;;;;;;;10.23;5.22;;;;;;;42.13;28.41;98812.56;5064155;28;20185;-90
2023/07/14 09:53:17;;;;;;;15.20;4.85;;;;;;;41.96;28.90;98815.75;5056461;28;20532;-90
2023/07/14 09:55:50;;;;;;;10.18;4.65;;;;;;;42.04;28.06;98809.59;5056702;28;20177;-90
2023/07/14 09:58:21;;;;;;;9.50;4.80;;;;;;;42.10;29.20;98810.38;5073572;28;20177;-89
2023/07/14 10:00:49;;;;;;;15.75;4.15;;;;;;;42.08;28.04;98807.09;5076216;28;20173;-89
2023/07/14 10:03:15;;;;;;;13.50;4.40;;;;;;;42.03;29.61;98807.16;5075868;28;20201;-91
2023/07/14 10:05:55;;;;;;;8.65;4.47;;;;;;;41.99;28.54;98795.06;5075874;28;20230;-89
2023/07/14 10:08:33;;;;;;;12.32;3.97;;;;;;;42.25;27.86;98799.19;5074858;28;20195;-91
2023/07/14 10:11:11;;;;;;;9.40;4.95;;;;;;;41.89;29.04;98795.19;5063110;28;20626;-88
2023/07/14 10:13:37;;;;;;;13.27;4.95;;;;;;;42.17;27.71;98797.09;5063187;28;20201;-89
2023/07/14 10:16:17;;;;;;;8.32;4.55;;;;;;;42.20;27.74;98785.47;5075790;28;20185;-88
2023/07/14 10:18:54;;;;;;;8.52;4.38;;;;;;;42.06;27.84;98787.28;5075807;28;20174;-88
2023/07/14 10:21:30;;;;;;;10.10;5.05;;;;;;;42.48;27.12;98790.06;5075951;28;20169;-88
2023/07/14 10:23:59;;;;;;;8.07;4.53;;;;;;;42.48;28.90;98795.56;5075762;28;20243;-88
2023/07/14 10:26:30;;;;;;;11.48;4.70;;;;;;;42.27;28.78;98785.97;5075861;28;20251;-88
2023/07/14 10:28:57;;;;;;;9.57;4.22;;;;;;;42.02;27.58;98786.22;5074782;28;20589;-88
2023/07/14 10:31:28;;;;;;;14.27;4.28;;;;;;;41.78;28.87;98774.38;5074848;28;20661;-87
2023/07/14 10:33:54;;;;;;;9.95;4.57;;;;;;;42.11;28.50;98788.06;5075905;28;20200;-87
2023/07/14 10:36:28;;;;;;;9.07;5.05;;;;;;;42.49;28.60;98772.41;5074722;28;20185;-88
2023/07/14 10:39:16;;;;;;;12.50;5.25;;;;;;;42.61;29.04;98772.81;5075958;28;20598;-88
2023/07/14 10:41:45;;;;;;;13.52;5.85;;;;;;;42.55;28.03;98779.53;5075546;28;20525;-88
2023/07/14 10:44:25;;;;;;;9.93;5.60;;;;;;;42.60;28.35;98778.63;5075269;28;20205;-87
2023/07/14 10:46:58;;;;;;;14.15;5.60;;;;;;;42.13;29.18;98776.75;5074547;28;20173;-89
2023/07/14 10:49:26;;;;;;;11.35;5.43;;;;;;;41.84;28.65;98778.72;5074588;28;20191;-88
2023/07/14 10:52:31;;;;;;;12.82;6.55;;;;;;;41.80;30.27;98777.69;5075973;28;20176;-88
2023/07/14 10:55:04;;;;;;;20.67;5.82;;;;;;;42.01;30.29;98776.34;5074864;28;20214;-88
2023/07/14 10:57:49;;;;;;;11.15;5.30;;;;;;;41.87;29.12;98761.63;5075609;28;20169;-88
2023/07/14 11:00:20;;;;;;;12.70;6.00;;;;;;;42.25;29.26;98752.34;5075848;28;20187;-88
2023/07/14 11:02:53;;;;;;;13.13;5.35;;;;;;;42.28;28.35;98761.97;5074304;28;20208;-89
2023/07/14 11:05:23;;;;;;;9.85;5.70;;;;;;;41.60;29.24;98765.72;5074783;28;20653;-87
2023/07/14 11:07:49;;;;;;;10.95;5.97;;;;;;;41.97;28.89;98767.00;5074409;28;20184;-89
2023/07/14 11:10:49;;;;;;;8.27;5.25;;;;;;;42.43;29.01;98770.03;5073950;28;20180;-89
2023/07/14 11:13:39;;;;;;;12.05;6.32;;;;;;;42.20;29.46;98760.69;5074323;28;20241;-87
2023/07/14 11:16:24;;;;;;;15.18;6.15;;;;;;;42.13;30.21;98765.75;5075557;28;20153;-87
2023/07/14 11:19:10;;;;;;;11.02;6.00;;;;;;;42.09;28.50;98750.88;5075211;28;20214;-88
2023/07/14 11:21:48;;;;;;;9.30;6.05;;;;;;;41.61;28.89;98759.13;5073851;28;20267;-88
2023/07/14 11:24:30;;;;;;;14.35;6.78;;;;;;;41.99;29.54;98757.34;5073842;28;20209;-87
2023/07/14 11:27:14;;;;;;;9.82;5.85;;;;;;;42.33;28.59;98753.63;5074744;28;20172;-87
2023/07/14 11:29:50;;;;;;;9.63;5.63;;;;;;;42.71;27.86;98739.59;5071182;28;20196;-88
2023/07/14 11:32:22;;;;;;;11.57;6.20;;;;;;;42.70;27.92;98740.72;5054959;28;20165;-87
2023/07/14 11:35:00;;;;;;;10.95;5.90;;;;;;;42.92;27.17;98737.34;5054571;28;20181;-88
2023/07/14 11:37:53;;;;;;;11.52;5.82;;;;;;;42.65;26.88;98727.00;5054812;28;20149;-86
2023/07/14 11:40:22;;;;;;;8.80;5.22;;;;;;;42.53;27.65;98736.84;5054039;28;20185;-87
2023/07/14 11:42:54;;;;;;;8.82;4.97;;;;;;;43.10;28.70;98725.50;5052923;28;20205;-87
2023/07/14 11:45:24;;;;;;;11.18;5.60;;;;;;;43.12;27.56;98733.44;5053477;28;20184;-87